Fayville, Illinois
Current Conditions -  °F | °C
As of 7:53 PM on Friday 28 Nov 2014 (Local Time) from KCGI Reporting Station
Clear Clear  
Wind Chill:   Ceiling: Unl
Heat Index:   Visibility: 10mi
Dew Point: -1°   Wind: 12mph
Humidity: 60%   Direction: 180°S
Pressure: 30.04"   Gusts: NA
Location:  37.1947°N, 89.3961°W
Report Text: KCGI 290153Z AUTO 18010KT 10SM CLR 07/M01 A3004 RMK AO2 SLP173 T00671006 TSNO
Loading
Personal Weather Stations






























Interactive Weather Map New forecast layout! Learn more

10-Day Weather Forecast

Advertisements
Track Severe Weather on mobile